createdAt,value
2022-10-13T00:01:49.737Z,11.82
2022-10-13T00:04:22.308Z,11.68
2022-10-13T00:06:51.009Z,13.18
2022-10-13T00:09:19.944Z,11.77
2022-10-13T00:11:48.616Z,11.55
2022-10-13T00:14:17.234Z,12.70
2022-10-13T00:16:45.955Z,12.32
2022-10-13T00:19:15.226Z,13.30
2022-10-13T00:21:45.779Z,13.30
2022-10-13T00:24:17.003Z,12.73
2022-10-13T00:26:45.655Z,12.88
2022-10-13T00:29:20.868Z,12.98
2022-10-13T00:31:49.653Z,14.15
2022-10-13T00:34:18.324Z,12.52
2022-10-13T00:36:51.058Z,14.57
2022-10-13T00:39:20.213Z,13.00
2022-10-13T00:41:48.840Z,15.07
2022-10-13T00:44:55.312Z,13.07
2022-10-13T00:47:28.077Z,14.93
2022-10-13T00:49:57.146Z,13.00
2022-10-13T00:52:28.605Z,14.15
2022-10-13T00:54:57.931Z,11.95
2022-10-13T00:57:30.021Z,12.77
2022-10-13T00:59:59.793Z,14.32
2022-10-13T01:02:33.780Z,13.65
2022-10-13T01:05:07.232Z,13.10
2022-10-13T01:07:37.997Z,14.40
2022-10-13T01:10:07.925Z,14.18
2022-10-13T01:12:50.292Z,13.02
2022-10-13T01:15:27.612Z,14.77
2022-10-13T01:18:08.974Z,13.73
2022-10-13T01:21:08.884Z,14.15
2022-10-13T01:24:14.672Z,13.77
2022-10-13T01:27:05.825Z,14.57
2022-10-13T01:30:03.555Z,13.73
2022-10-13T01:32:58.314Z,13.35
2022-10-13T01:35:38.552Z,15.90
2022-10-13T01:38:11.934Z,13.00
2022-10-13T01:40:46.814Z,13.82
2022-10-13T01:43:23.263Z,13.10
2022-10-13T01:45:58.149Z,13.73
2022-10-13T01:48:29.449Z,14.18
2022-10-13T01:51:00.318Z,14.40
2022-10-13T01:53:31.058Z,14.55
2022-10-13T01:56:01.159Z,16.20
2022-10-13T01:58:34.967Z,15.15
2022-10-13T02:01:19.788Z,14.55
2022-10-13T02:04:02.420Z,14.85
2022-10-13T02:06:40.250Z,15.75
2022-10-13T02:09:14.624Z,15.15
2022-10-13T02:11:52.373Z,14.80
2022-10-13T02:14:26.420Z,15.55
2022-10-13T02:17:03.695Z,16.45
2022-10-13T02:19:36.586Z,16.55
2022-10-13T02:22:07.394Z,18.80
2022-10-13T02:24:36.368Z,17.55
2022-10-13T02:27:07.663Z,16.17
2022-10-13T02:29:36.285Z,17.88
2022-10-13T02:32:06.809Z,17.42
2022-10-13T02:34:35.501Z,17.13
2022-10-13T02:37:04.130Z,16.48
2022-10-13T02:39:33.396Z,17.48
2022-10-13T02:42:02.207Z,17.33
2022-10-13T02:44:31.151Z,17.88
2022-10-13T02:47:03.157Z,16.42
2022-10-13T02:49:35.500Z,16.75
2022-10-13T02:52:07.642Z,17.60
2022-10-13T02:54:39.727Z,17.35
2022-10-13T02:57:08.397Z,17.77
2022-10-13T02:59:39.386Z,17.70
2022-10-13T03:02:08.147Z,16.08
2022-10-13T03:04:38.147Z,17.38
2022-10-13T03:07:07.251Z,17.35
2022-10-13T03:09:38.159Z,16.38
2022-10-13T03:12:07.272Z,17.58
2022-10-13T03:14:37.238Z,16.80
2022-10-13T03:17:13.165Z,18.60
2022-10-13T03:19:43.543Z,15.68
2022-10-13T03:22:15.639Z,19.65
2022-10-13T03:24:44.817Z,16.88
2022-10-13T03:27:14.345Z,18.23
2022-10-13T03:29:45.597Z,19.08
2022-10-13T03:32:14.268Z,17.45
2022-10-13T03:35:15.073Z,18.92
2022-10-13T03:37:43.778Z,17.70
2022-10-13T03:40:13.357Z,18.13
2022-10-13T03:42:42.141Z,18.83
2022-10-13T03:45:13.249Z,17.67
2022-10-13T03:47:44.971Z,15.73
2022-10-13T03:50:15.052Z,17.35
2022-10-13T03:52:43.745Z,18.52
2022-10-13T03:55:17.468Z,17.13
2022-10-13T03:57:49.033Z,16.15
2022-10-13T04:00:18.550Z,18.08
2022-10-13T04:02:50.138Z,16.85
2022-10-13T04:05:20.581Z,18.20
2022-10-13T04:07:49.280Z,17.08
2022-10-13T04:10:20.308Z,17.25
2022-10-13T04:12:51.305Z,17.45
2022-10-13T04:15:22.372Z,17.73
2022-10-13T04:17:51.158Z,15.95
2022-10-13T04:20:21.520Z,19.13
2022-10-13T04:22:50.408Z,18.55
2022-10-13T04:25:21.249Z,19.63
2022-10-13T04:27:50.538Z,18.98
2022-10-13T04:30:19.550Z,17.42
2022-10-13T04:32:48.870Z,18.63
2022-10-13T04:35:22.753Z,18.45
2022-10-13T04:37:51.712Z,18.95
2022-10-13T04:40:20.579Z,20.20
2022-10-13T04:42:52.494Z,18.08
2022-10-13T04:45:21.509Z,17.95
2022-10-13T04:47:52.001Z,15.90
2022-10-13T04:50:25.060Z,17.75
2022-10-13T04:53:01.003Z,17.63
2022-10-13T04:55:32.788Z,17.97
2022-10-13T04:58:01.460Z,17.85
2022-10-13T05:00:30.150Z,18.42
2022-10-13T05:02:58.886Z,18.67
2022-10-13T05:05:28.829Z,18.48
2022-10-13T05:07:59.927Z,18.23
2022-10-13T05:10:33.892Z,20.05
2022-10-13T05:13:03.505Z,18.00
2022-10-13T05:15:32.362Z,18.83
2022-10-13T05:18:01.369Z,19.15
2022-10-13T05:20:31.393Z,20.85
2022-10-13T05:23:00.670Z,16.92
2022-10-13T05:25:33.666Z,19.30
2022-10-13T05:28:02.718Z,19.13
2022-10-13T05:30:31.403Z,17.63
2022-10-13T05:33:03.666Z,17.83
2022-10-13T05:35:33.710Z,18.42
2022-10-13T05:38:04.910Z,21.33
2022-10-13T05:40:34.298Z,19.02
2022-10-13T05:43:03.104Z,18.30
2022-10-13T05:45:34.193Z,19.10
2022-10-13T05:48:03.269Z,19.98
2022-10-13T05:50:33.327Z,18.58
2022-10-13T05:53:02.160Z,18.23
2022-10-13T05:55:33.314Z,18.50
2022-10-13T05:58:04.360Z,19.73
2022-10-13T06:00:33.298Z,18.08
2022-10-13T06:03:08.706Z,17.88
2022-10-13T06:05:40.758Z,18.98
2022-10-13T06:08:11.726Z,18.85
2022-10-13T06:10:47.030Z,18.50
2022-10-13T06:13:16.619Z,18.20
2022-10-13T06:15:45.687Z,17.58
2022-10-13T06:18:14.296Z,17.90
2022-10-13T06:20:45.083Z,19.25
2022-10-13T06:23:17.199Z,18.27
2022-10-13T06:25:49.385Z,17.15
2022-10-13T06:28:19.477Z,19.23
2022-10-13T06:30:53.797Z,19.65
2022-10-13T06:33:25.810Z,21.13
2022-10-13T06:35:55.792Z,21.63
2022-10-13T06:38:25.130Z,20.20
2022-10-13T06:40:55.925Z,20.92
2022-10-13T06:43:32.383Z,20.15
2022-10-13T06:46:05.571Z,18.98
2022-10-13T06:48:36.494Z,20.17
2022-10-13T06:51:12.681Z,22.40
2022-10-13T06:53:41.395Z,20.20
2022-10-13T06:56:10.798Z,20.67
2022-10-13T06:58:41.953Z,22.27
2022-10-13T07:01:14.954Z,21.98
2022-10-13T07:03:43.841Z,23.15
2022-10-13T07:06:14.022Z,22.20
2022-10-13T07:08:45.627Z,21.45
2022-10-13T07:11:18.392Z,21.70
2022-10-13T07:13:51.395Z,22.02
2022-10-13T07:16:22.471Z,24.70
2022-10-13T07:18:53.790Z,24.52
2022-10-13T07:21:23.977Z,23.77
2022-10-13T07:23:52.621Z,25.20
2022-10-13T07:26:21.675Z,25.67
2022-10-13T07:28:50.706Z,26.98
2022-10-13T07:31:21.509Z,24.92
2022-10-13T07:33:51.632Z,29.70
2022-10-13T07:36:20.819Z,28.17
2022-10-13T07:38:54.372Z,27.13
2022-10-13T07:41:22.988Z,26.42
2022-10-13T07:43:56.641Z,25.85
2022-10-13T07:46:25.814Z,28.27
2022-10-13T07:48:57.246Z,26.33
2022-10-13T07:51:26.258Z,25.38
2022-10-13T07:53:56.449Z,26.55
2022-10-13T07:56:25.243Z,25.52
2022-10-13T07:58:53.925Z,26.23
2022-10-13T08:01:22.639Z,24.42
2022-10-13T08:03:56.856Z,24.73
2022-10-13T08:06:26.246Z,25.90
2022-10-13T08:09:00.715Z,25.52
2022-10-13T08:11:29.363Z,24.33
2022-10-13T08:14:01.181Z,23.95
2022-10-13T08:16:31.536Z,23.48
2022-10-13T08:19:00.792Z,21.95
2022-10-13T08:21:56.756Z,20.67
2022-10-13T08:24:22.534Z,23.90
2022-10-13T08:26:51.841Z,22.55
2022-10-13T08:29:23.831Z,20.25
2022-10-13T08:31:54.295Z,21.73
2022-10-13T08:34:24.123Z,21.88
2022-10-13T08:36:54.839Z,23.02
2022-10-13T08:39:26.618Z,21.75
2022-10-13T08:41:59.408Z,23.23
2022-10-13T08:47:38.614Z,21.25
2022-10-13T08:50:14.435Z,21.50
2022-10-13T08:52:49.239Z,23.08
2022-10-13T08:55:25.448Z,22.67
2022-10-13T08:57:54.889Z,23.45
2022-10-13T09:00:28.340Z,22.77
2022-10-13T09:03:10.623Z,22.10
2022-10-13T09:05:50.422Z,22.17
2022-10-13T09:08:22.367Z,22.70
2022-10-13T09:10:53.256Z,21.88
2022-10-13T09:13:27.275Z,21.55
2022-10-13T09:15:59.327Z,21.63
2022-10-13T09:18:31.965Z,19.83
2022-10-13T09:21:12.219Z,21.13
2022-10-13T09:23:42.078Z,19.63
2022-10-13T09:26:20.201Z,19.25
2022-10-13T09:28:49.906Z,20.05
2022-10-13T09:31:22.645Z,19.52
2022-10-13T09:33:59.710Z,19.10
2022-10-13T09:36:31.303Z,18.88
2022-10-13T09:39:09.296Z,17.90
2022-10-13T09:41:44.646Z,17.13
2022-10-13T09:44:18.918Z,18.33
2022-10-13T09:46:52.328Z,19.80
2022-10-13T09:49:35.831Z,20.75
2022-10-13T09:52:16.119Z,23.90
2022-10-13T09:54:48.318Z,21.15
2022-10-13T09:57:32.948Z,20.95
2022-10-13T10:00:13.181Z,19.42
2022-10-13T10:02:47.784Z,19.42
2022-10-13T10:05:24.547Z,21.10
2022-10-13T10:08:04.101Z,21.85
2022-10-13T10:10:36.546Z,20.50
2022-10-13T10:13:13.118Z,20.60
2022-10-13T10:18:20.253Z,19.92
2022-10-13T10:21:01.648Z,24.80
2022-10-13T10:23:39.983Z,25.02
2022-10-13T10:26:20.723Z,23.40
2022-10-13T10:29:16.411Z,21.98
2022-10-13T10:32:17.011Z,24.08
2022-10-13T10:34:54.452Z,25.48
2022-10-13T10:37:45.658Z,24.58
2022-10-13T10:40:27.158Z,23.15
2022-10-13T10:43:14.037Z,24.10
2022-10-13T10:45:48.980Z,23.42
2022-10-13T10:48:23.163Z,26.88
2022-10-13T10:50:54.197Z,25.50
2022-10-13T10:53:35.968Z,24.85
2022-10-13T10:56:14.040Z,24.30
2022-10-13T10:58:54.270Z,24.10
2022-10-13T11:01:38.946Z,22.98
2022-10-13T11:04:40.723Z,21.80
2022-10-13T11:07:16.174Z,24.33
2022-10-13T11:10:20.960Z,22.02
2022-10-13T11:13:16.622Z,23.13
2022-10-13T11:15:47.381Z,22.33
2022-10-13T11:18:49.718Z,20.40
2022-10-13T11:21:22.832Z,20.05
2022-10-13T11:23:51.792Z,18.33
2022-10-13T11:26:43.626Z,18.15
2022-10-13T11:29:56.917Z,16.33
2022-10-13T11:32:55.599Z,15.52
2022-10-13T11:35:28.163Z,13.75
2022-10-13T11:38:16.814Z,14.25
2022-10-13T11:41:09.305Z,13.43
2022-10-13T11:43:52.552Z,14.25
2022-10-13T11:46:28.099Z,14.48
2022-10-13T11:49:19.322Z,14.45
2022-10-13T11:52:21.765Z,13.75
2022-10-13T11:54:55.011Z,15.57
2022-10-13T11:57:27.644Z,15.07
2022-10-13T11:59:57.975Z,16.17
2022-10-13T12:02:52.003Z,14.15
2022-10-13T12:05:25.323Z,14.40
2022-10-13T12:07:56.431Z,7.77
2022-10-13T12:10:33.094Z,4.40
2022-10-13T12:13:04.537Z,2.78
2022-10-13T12:15:37.766Z,1.98
2022-10-13T12:18:23.636Z,1.73
2022-10-13T12:20:56.606Z,1.27
2022-10-13T12:23:25.923Z,1.63
2022-10-13T12:26:00.291Z,1.38
2022-10-13T12:28:31.972Z,1.42
2022-10-13T12:31:01.569Z,1.00
2022-10-13T12:33:35.547Z,1.95
2022-10-13T12:36:15.472Z,0.98
2022-10-13T12:38:50.812Z,0.70
2022-10-13T12:41:27.978Z,1.20
2022-10-13T12:44:01.040Z,1.10
2022-10-13T12:46:40.531Z,1.33
2022-10-13T12:49:15.718Z,1.08
2022-10-13T12:51:49.355Z,1.20
2022-10-13T12:54:25.528Z,1.80
2022-10-13T12:56:57.784Z,1.70
2022-10-13T12:59:29.321Z,1.42
2022-10-13T13:02:02.627Z,1.40
2022-10-13T13:04:44.808Z,1.77
2022-10-13T13:07:31.893Z,1.45
2022-10-13T13:10:02.710Z,1.67
2022-10-13T13:12:32.154Z,1.60
2022-10-13T13:15:33.309Z,1.83
2022-10-13T13:18:39.641Z,3.10
2022-10-13T13:21:12.469Z,2.60
2022-10-13T13:23:51.175Z,3.22
2022-10-13T13:26:24.230Z,2.17
2022-10-13T13:28:54.763Z,2.63
2022-10-13T13:31:27.703Z,2.83
2022-10-13T13:33:56.337Z,3.08
2022-10-13T13:36:28.371Z,3.75
2022-10-13T13:38:57.247Z,3.92
2022-10-13T13:41:27.819Z,3.80
2022-10-13T13:43:56.460Z,4.43
2022-10-13T13:46:27.622Z,4.57
2022-10-13T13:48:56.719Z,3.58
2022-10-13T13:51:29.705Z,2.75
2022-10-13T13:53:58.690Z,2.70
2022-10-13T13:56:27.644Z,2.47
2022-10-13T13:58:56.279Z,2.42
2022-10-13T14:01:25.936Z,3.00
2022-10-13T14:03:54.609Z,2.80
2022-10-13T14:06:23.591Z,3.47
2022-10-13T14:08:56.246Z,3.97
2022-10-13T14:11:25.047Z,3.63
2022-10-13T14:13:53.716Z,4.18
2022-10-13T14:16:29.887Z,5.05
2022-10-13T14:19:00.040Z,5.53
2022-10-13T14:21:28.977Z,6.20
2022-10-13T14:24:00.242Z,6.35
2022-10-13T14:26:28.930Z,4.30
2022-10-13T14:28:57.791Z,3.90
2022-10-13T14:31:26.735Z,4.00
2022-10-13T14:33:55.358Z,4.22
2022-10-13T14:36:26.427Z,4.93
2022-10-13T14:38:55.255Z,5.57
2022-10-13T14:41:27.619Z,3.88
2022-10-13T14:43:58.850Z,2.47
2022-10-13T14:46:27.642Z,2.60
2022-10-13T14:48:58.781Z,2.20
2022-10-13T14:51:27.514Z,2.15
2022-10-13T14:53:56.492Z,2.20
2022-10-13T14:56:30.174Z,2.05
2022-10-13T14:59:03.067Z,2.50
2022-10-13T15:01:39.531Z,2.40
2022-10-13T15:04:08.420Z,2.35
2022-10-13T15:06:40.564Z,2.42
2022-10-13T15:09:10.649Z,2.22
2022-10-13T15:11:41.222Z,2.83
2022-10-13T15:14:10.795Z,2.92
2022-10-13T15:16:39.879Z,2.42
2022-10-13T15:19:08.545Z,2.67
2022-10-13T15:21:37.340Z,2.75
2022-10-13T15:24:06.299Z,2.47
2022-10-13T15:26:35.135Z,2.53
2022-10-13T15:29:05.222Z,3.60
2022-10-13T15:31:33.873Z,2.75
2022-10-13T15:34:04.859Z,2.42
2022-10-13T15:36:33.593Z,2.45
2022-10-13T15:39:04.653Z,1.92
2022-10-13T15:41:34.018Z,1.85
2022-10-13T15:44:03.186Z,2.25
2022-10-13T15:46:33.440Z,2.00
2022-10-13T15:49:02.034Z,2.17
2022-10-13T15:51:32.996Z,2.35
2022-10-13T15:54:01.563Z,2.00
2022-10-13T15:56:30.471Z,2.63
2022-10-13T15:58:59.782Z,3.13
2022-10-13T16:01:28.700Z,2.95
2022-10-13T16:04:01.039Z,3.80
2022-10-13T16:06:29.886Z,5.07
2022-10-13T16:09:02.087Z,8.18
2022-10-13T16:11:33.403Z,3.42
2022-10-13T16:14:04.541Z,4.85
2022-10-13T16:16:33.466Z,3.75
2022-10-13T16:19:03.734Z,4.55
2022-10-13T16:21:35.122Z,5.50
2022-10-13T16:24:07.081Z,10.60
2022-10-13T16:26:35.939Z,4.85
2022-10-13T16:29:05.011Z,5.47
2022-10-13T16:31:33.892Z,4.13
2022-10-13T16:34:04.196Z,5.07
2022-10-13T16:36:35.238Z,4.57
2022-10-13T16:39:06.166Z,5.47
2022-10-13T16:41:35.386Z,5.70
2022-10-13T16:44:04.061Z,6.97
2022-10-13T16:46:33.535Z,5.68
2022-10-13T16:49:06.469Z,5.90
2022-10-13T16:51:35.484Z,5.85
2022-10-13T16:54:04.935Z,7.55
2022-10-13T16:56:34.364Z,7.70
2022-10-13T16:59:04.935Z,7.10
2022-10-13T17:01:34.769Z,7.53
2022-10-13T17:04:07.823Z,9.10
2022-10-13T17:06:38.648Z,7.47
2022-10-13T17:09:08.186Z,7.30
2022-10-13T17:11:39.835Z,17.70
2022-10-13T17:14:08.599Z,21.98
2022-10-13T17:16:38.205Z,14.90
2022-10-13T17:19:10.975Z,9.13
2022-10-13T17:21:42.467Z,10.63
2022-10-13T17:24:14.338Z,9.68
2022-10-13T17:26:43.043Z,10.43
2022-10-13T17:29:13.912Z,12.50
2022-10-13T17:31:43.181Z,13.77
2022-10-13T17:34:13.198Z,11.82
2022-10-13T17:36:45.069Z,12.95
2022-10-13T17:39:17.708Z,12.82
2022-10-13T17:41:50.031Z,15.20
2022-10-13T17:44:23.162Z,16.85
2022-10-13T17:46:52.449Z,17.10
2022-10-13T17:49:23.631Z,17.77
2022-10-13T17:51:54.699Z,17.65
2022-10-13T17:54:25.587Z,18.30
2022-10-13T17:56:56.568Z,16.90
2022-10-13T17:59:25.394Z,18.08
2022-10-13T18:01:54.783Z,15.48
2022-10-13T18:04:25.120Z,16.73
2022-10-13T18:06:54.170Z,16.80
2022-10-13T18:09:24.595Z,17.15
2022-10-13T18:11:54.883Z,16.73
2022-10-13T18:14:25.936Z,16.58
2022-10-13T18:16:55.435Z,19.38
2022-10-13T18:19:25.830Z,22.67
2022-10-13T18:21:55.283Z,17.13
2022-10-13T18:24:25.222Z,21.10
2022-10-13T18:29:30.744Z,16.97
2022-10-13T18:31:59.860Z,17.48
2022-10-13T18:34:29.956Z,22.08
2022-10-13T18:36:58.589Z,28.25
2022-10-13T18:39:30.135Z,25.45
2022-10-13T18:41:59.544Z,22.63
2022-10-13T18:44:35.949Z,19.27
2022-10-13T18:47:04.598Z,19.17
2022-10-13T18:49:35.079Z,18.02
2022-10-13T18:52:06.607Z,18.23
2022-10-13T18:54:42.026Z,16.27
2022-10-13T18:57:10.702Z,17.15
2022-10-13T18:59:39.714Z,19.38
2022-10-13T19:02:10.579Z,19.10
2022-10-13T19:04:41.283Z,20.27
2022-10-13T19:07:10.242Z,20.02
2022-10-13T19:09:41.411Z,46.20
2022-10-13T19:12:12.831Z,36.00
2022-10-13T19:14:42.497Z,28.48
2022-10-13T19:17:14.244Z,16.63
2022-10-13T19:19:45.963Z,23.23
2022-10-13T19:22:17.984Z,20.92
2022-10-13T19:24:46.788Z,17.58
2022-10-13T19:27:17.896Z,17.17
2022-10-13T19:29:46.712Z,17.40
2022-10-13T19:32:17.810Z,18.13
2022-10-13T19:34:50.470Z,17.10
2022-10-13T19:37:23.510Z,15.70
2022-10-13T19:39:52.355Z,15.50
2022-10-13T19:42:21.253Z,15.43
2022-10-13T19:44:53.074Z,16.55
2022-10-13T19:47:24.113Z,13.23
2022-10-13T19:49:54.693Z,14.80
2022-10-13T19:52:24.892Z,12.27
2022-10-13T19:54:55.691Z,12.50
2022-10-13T19:57:25.391Z,14.95
2022-10-13T19:59:54.618Z,14.07
2022-10-13T20:02:24.100Z,14.77
2022-10-13T20:04:54.289Z,16.05
2022-10-13T20:07:26.191Z,14.25
2022-10-13T20:09:55.032Z,14.95
2022-10-13T20:12:29.268Z,15.73
2022-10-13T20:14:58.023Z,15.30
2022-10-13T20:17:28.048Z,15.68
2022-10-13T20:19:58.419Z,18.08
2022-10-13T20:22:27.185Z,17.83
2022-10-13T20:24:56.477Z,19.88
2022-10-13T20:27:26.044Z,19.08
2022-10-13T20:29:54.702Z,19.27
2022-10-13T20:32:23.793Z,17.10
2022-10-13T20:34:53.458Z,22.95
2022-10-13T20:37:29.939Z,23.05
2022-10-13T20:39:59.190Z,27.20
2022-10-13T20:42:28.353Z,18.20
2022-10-13T20:44:57.123Z,22.38
2022-10-13T20:47:28.412Z,15.68
2022-10-13T20:49:59.527Z,12.90
2022-10-13T20:52:29.784Z,16.02
2022-10-13T20:57:33.386Z,39.97
2022-10-13T21:00:03.002Z,26.98
2022-10-13T21:02:33.775Z,22.48
2022-10-13T21:05:02.710Z,22.80
2022-10-13T21:07:33.008Z,24.00
2022-10-13T21:10:01.905Z,28.30
2022-10-13T21:12:31.277Z,16.17
2022-10-13T21:15:00.041Z,18.23
2022-10-13T21:17:30.564Z,21.75
2022-10-13T21:20:04.184Z,12.60
2022-10-13T21:22:37.016Z,13.52
2022-10-13T21:25:09.712Z,10.85
2022-10-13T21:27:40.613Z,12.27
2022-10-13T21:30:10.260Z,9.43
2022-10-13T21:32:38.987Z,11.13
2022-10-13T21:35:07.984Z,13.48
2022-10-13T21:37:38.935Z,9.55
2022-10-13T21:40:09.358Z,10.93
2022-10-13T21:42:38.721Z,9.85
2022-10-13T21:45:08.386Z,11.68
2022-10-13T21:47:37.746Z,8.57
2022-10-13T21:50:09.826Z,9.23
2022-10-13T21:52:42.282Z,8.80
2022-10-13T21:55:10.897Z,9.32
2022-10-13T21:57:41.275Z,9.45
2022-10-13T22:00:11.071Z,13.18
2022-10-13T22:02:41.358Z,16.13
2022-10-13T22:05:12.965Z,10.10
2022-10-13T22:07:43.634Z,10.95
2022-10-13T22:10:14.707Z,17.45
2022-10-13T22:12:43.751Z,19.85
2022-10-13T22:15:12.763Z,20.55
2022-10-13T22:17:41.628Z,13.35
2022-10-13T22:20:10.581Z,20.88
2022-10-13T22:22:42.971Z,12.48
2022-10-13T22:25:14.530Z,15.50
2022-10-13T22:27:43.469Z,10.98
2022-10-13T22:30:12.762Z,12.45
2022-10-13T22:32:41.713Z,12.55
2022-10-13T22:35:10.610Z,18.50
2022-10-13T22:37:39.521Z,15.07
2022-10-13T22:40:10.797Z,13.93
2022-10-13T22:42:39.730Z,13.40
2022-10-13T22:45:09.129Z,14.23
2022-10-13T22:47:37.774Z,14.48
2022-10-13T22:50:09.426Z,17.27
2022-10-13T22:52:38.083Z,15.50
2022-10-13T22:55:09.745Z,15.80
2022-10-13T22:57:39.132Z,15.13
2022-10-13T23:00:11.315Z,17.08
2022-10-13T23:02:43.154Z,17.50
2022-10-13T23:05:11.783Z,16.92
2022-10-13T23:07:40.426Z,20.33
2022-10-13T23:10:12.708Z,21.33
2022-10-13T23:12:44.089Z,20.55
2022-10-13T23:15:12.882Z,17.15
2022-10-13T23:17:44.159Z,22.73
2022-10-13T23:20:13.307Z,17.38
2022-10-13T23:22:42.081Z,16.70
2022-10-13T23:25:12.270Z,14.50
2022-10-13T23:27:42.040Z,17.33
2022-10-13T23:30:11.832Z,22.42
2022-10-13T23:32:40.779Z,18.85
2022-10-13T23:35:10.079Z,20.98
2022-10-13T23:37:39.406Z,17.92
2022-10-13T23:40:09.111Z,22.00
2022-10-13T23:42:39.193Z,20.92
2022-10-13T23:45:09.530Z,30.42
2022-10-13T23:47:41.340Z,20.83
2022-10-13T23:50:10.853Z,16.55
2022-10-13T23:52:39.772Z,15.70
2022-10-13T23:55:10.866Z,13.90
2022-10-13T23:57:40.942Z,13.95
